Карточка аэропорта URSS

Внимание!
Информация на этой странице в стадии наполнения.
Если вы не увидели какой-то информации, или заметили неточность - пожалуйста сообщите нам!
Спасибо!
Команда RU-STAFF
Название аэропортаСочи
Название аэропорта (англ.)Sochi
Превышение89 ft. (27.1 m.)
Координаты43°26.634', 39°56.55'
Высота перехода13000 ft
Эшелон переходаQNH>=977hPa: FL150; QNH<977hPa: FL160
Коды ответчика1060-1077
Зона ОрВДРостов-на-Дону РПИ (URRV)
Данные METARURSS 281100Z 23002MPS 9999 FEW020 BKN110 23/18 Q1012 R02/010070 R06/010070 NOSIG RMK R06/29002G06MPS MT OBSC QFE758
Проноз погоды (TAF)URSS 280755Z 2809/2909 27005G10MPS 9999 SCT012 BKN040CB OVC100 TEMPO 2809/2817 VRB07G12MPS -TSRA SCT010 BKN030CB OVC100 BECMG 2817/2818 05003G08MPS TEMPO 2818/2821 VRB07G13MPS 2500 -TSRA SCT007 BKN030CB OVC100 FM282100 15007G14MPS 6000 -SHRA BKN010 BKN030CB OVC100 TEMPO 2821/2909 VRB09G16MPS 1500 TSRA BKN006 BKN030CB OVC100
NOTAMshow/hide NOTAM
AWOS   TABLE

Информация о ВПП

ВПП Длина ВПП (м.) Покрытие Курс ВПП Частота ILS
062890Цементобетон58111.1
022500Цементобетон22110.5
242890Цементобетон238 
202500Цементобетон202 

Диспетчерские позиции

Позывной Наименование органа УВД Частота
URSS_GNDСочи-Руление119.000
URSSFM1119.000
URSS_R_APPСочи-Круг119.700
URSS_TWRСочи-Старт121.200
URSS_APPСочи-Подход124.600
URSS_DELСочи-Деливери132.700



Спутниковое изображение